sensor_id;sensor_type;location;lat;lon;timestamp;P1;durP1;ratioP1;P2;durP2;ratioP2
31224;SDS011;17847;31.524;74.366;2023-07-16T00:01:15;7.72;;;4.22;;
31224;SDS011;17847;31.524;74.366;2023-07-16T00:03:44;5.43;;;4.43;;
31224;SDS011;17847;31.524;74.366;2023-07-16T00:06:13;4.45;;;3.75;;
31224;SDS011;17847;31.524;74.366;2023-07-16T00:08:43;5.55;;;4.10;;
31224;SDS011;17847;31.524;74.366;2023-07-16T00:11:12;7.05;;;3.95;;
31224;SDS011;17847;31.524;74.366;2023-07-16T00:13:42;4.63;;;3.58;;
31224;SDS011;17847;31.524;74.366;2023-07-16T00:16:15;5.65;;;3.90;;
31224;SDS011;17847;31.524;74.366;2023-07-16T00:18:45;5.85;;;4.13;;
31224;SDS011;17847;31.524;74.366;2023-07-16T00:21:14;5.70;;;4.45;;
31224;SDS011;17847;31.524;74.366;2023-07-16T00:23:43;7.13;;;4.40;;
31224;SDS011;17847;31.524;74.366;2023-07-16T00:26:13;13.15;;;4.60;;
31224;SDS011;17847;31.524;74.366;2023-07-16T00:28:43;10.60;;;5.63;;
31224;SDS011;17847;31.524;74.366;2023-07-16T00:31:12;15.23;;;5.47;;
31224;SDS011;17847;31.524;74.366;2023-07-16T00:33:43;6.20;;;5.00;;
31224;SDS011;17847;31.524;74.366;2023-07-16T00:36:13;8.55;;;4.90;;
31224;SDS011;17847;31.524;74.366;2023-07-16T00:38:43;9.85;;;6.30;;
31224;SDS011;17847;31.524;74.366;2023-07-16T00:41:14;7.13;;;5.00;;
31224;SDS011;17847;31.524;74.366;2023-07-16T00:43:44;7.63;;;5.07;;
31224;SDS011;17847;31.524;74.366;2023-07-16T00:46:13;8.45;;;5.55;;
31224;SDS011;17847;31.524;74.366;2023-07-16T00:48:43;10.35;;;5.47;;
31224;SDS011;17847;31.524;74.366;2023-07-16T00:51:13;10.93;;;5.78;;
31224;SDS011;17847;31.524;74.366;2023-07-16T00:53:46;7.47;;;5.93;;
31224;SDS011;17847;31.524;74.366;2023-07-16T00:56:17;6.20;;;5.60;;
31224;SDS011;17847;31.524;74.366;2023-07-16T00:58:46;9.77;;;5.95;;
31224;SDS011;17847;31.524;74.366;2023-07-16T01:01:16;8.40;;;5.28;;
31224;SDS011;17847;31.524;74.366;2023-07-16T01:03:46;11.45;;;6.65;;
31224;SDS011;17847;31.524;74.366;2023-07-16T01:09:17;10.50;;;6.32;;
31224;SDS011;17847;31.524;74.366;2023-07-16T01:11:49;11.38;;;6.70;;
31224;SDS011;17847;31.524;74.366;2023-07-16T01:14:20;12.80;;;7.90;;
31224;SDS011;17847;31.524;74.366;2023-07-16T01:16:51;11.85;;;8.32;;
31224;SDS011;17847;31.524;74.366;2023-07-16T01:19:26;10.82;;;7.88;;
31224;SDS011;17847;31.524;74.366;2023-07-16T01:30:26;7.90;;;6.35;;
31224;SDS011;17847;31.524;74.366;2023-07-16T01:32:57;9.23;;;5.97;;
31224;SDS011;17847;31.524;74.366;2023-07-16T01:35:30;9.32;;;6.13;;
31224;SDS011;17847;31.524;74.366;2023-07-16T01:37:59;8.68;;;5.72;;
31224;SDS011;17847;31.524;74.366;2023-07-16T01:40:29;9.10;;;5.95;;
31224;SDS011;17847;31.524;74.366;2023-07-16T01:43:00;7.60;;;6.13;;
31224;SDS011;17847;31.524;74.366;2023-07-16T01:45:29;8.23;;;5.85;;
31224;SDS011;17847;31.524;74.366;2023-07-16T01:48:44;9.25;;;6.28;;
31224;SDS011;17847;31.524;74.366;2023-07-16T01:50:59;10.07;;;6.25;;
31224;SDS011;17847;31.524;74.366;2023-07-16T01:53:28;8.30;;;6.47;;
31224;SDS011;17847;31.524;74.366;2023-07-16T01:56:00;11.32;;;6.70;;
31224;SDS011;17847;31.524;74.366;2023-07-16T01:58:30;10.23;;;6.10;;
31224;SDS011;17847;31.524;74.366;2023-07-16T02:01:00;9.48;;;6.90;;
31224;SDS011;17847;31.524;74.366;2023-07-16T02:03:29;9.70;;;6.32;;
31224;SDS011;17847;31.524;74.366;2023-07-16T02:05:59;8.88;;;6.78;;
31224;SDS011;17847;31.524;74.366;2023-07-16T02:08:28;8.02;;;6.95;;
31224;SDS011;17847;31.524;74.366;2023-07-16T02:10:58;8.98;;;7.00;;
31224;SDS011;17847;31.524;74.366;2023-07-16T02:13:27;7.22;;;6.00;;
31224;SDS011;17847;31.524;74.366;2023-07-16T02:15:57;9.20;;;6.38;;
31224;SDS011;17847;31.524;74.366;2023-07-16T02:18:34;8.35;;;7.43;;
31224;SDS011;17847;31.524;74.366;2023-07-16T02:21:08;10.45;;;7.97;;
31224;SDS011;17847;31.524;74.366;2023-07-16T02:23:37;13.57;;;7.85;;
31224;SDS011;17847;31.524;74.366;2023-07-16T02:26:07;10.15;;;7.97;;
31224;SDS011;17847;31.524;74.366;2023-07-16T02:28:39;11.70;;;9.00;;
31224;SDS011;17847;31.524;74.366;2023-07-16T02:31:09;13.68;;;9.23;;
31224;SDS011;17847;31.524;74.366;2023-07-16T02:33:40;12.68;;;8.40;;
31224;SDS011;17847;31.524;74.366;2023-07-16T02:36:10;12.25;;;9.60;;
31224;SDS011;17847;31.524;74.366;2023-07-16T02:38:41;15.98;;;9.90;;
31224;SDS011;17847;31.524;74.366;2023-07-16T02:41:11;12.68;;;10.05;;
31224;SDS011;17847;31.524;74.366;2023-07-16T02:43:42;14.23;;;10.40;;
31224;SDS011;17847;31.524;74.366;2023-07-16T02:46:14;13.48;;;9.73;;
31224;SDS011;17847;31.524;74.366;2023-07-16T02:48:47;13.68;;;9.98;;
31224;SDS011;17847;31.524;74.366;2023-07-16T02:51:17;13.18;;;10.02;;
31224;SDS011;17847;31.524;74.366;2023-07-16T02:53:46;13.75;;;9.85;;
31224;SDS011;17847;31.524;74.366;2023-07-16T02:56:16;12.80;;;9.05;;
31224;SDS011;17847;31.524;74.366;2023-07-16T02:58:45;10.95;;;8.93;;
31224;SDS011;17847;31.524;74.366;2023-07-16T03:01:15;13.63;;;8.18;;
31224;SDS011;17847;31.524;74.366;2023-07-16T03:03:44;9.77;;;7.85;;
31224;SDS011;17847;31.524;74.366;2023-07-16T03:06:14;11.00;;;8.02;;
31224;SDS011;17847;31.524;74.366;2023-07-16T03:08:50;9.55;;;7.13;;
31224;SDS011;17847;31.524;74.366;2023-07-16T03:11:19;10.10;;;7.10;;
31224;SDS011;17847;31.524;74.366;2023-07-16T03:13:48;11.77;;;7.82;;
31224;SDS011;17847;31.524;74.366;2023-07-16T03:16:18;11.00;;;7.43;;
31224;SDS011;17847;31.524;74.366;2023-07-16T03:18:47;10.45;;;7.90;;
31224;SDS011;17847;31.524;74.366;2023-07-16T03:21:17;12.80;;;7.78;;
31224;SDS011;17847;31.524;74.366;2023-07-16T03:23:47;10.57;;;7.85;;
31224;SDS011;17847;31.524;74.366;2023-07-16T03:26:17;10.15;;;7.88;;
31224;SDS011;17847;31.524;74.366;2023-07-16T03:28:48;12.15;;;7.90;;
31224;SDS011;17847;31.524;74.366;2023-07-16T03:31:17;12.18;;;7.18;;
31224;SDS011;17847;31.524;74.366;2023-07-16T03:33:48;10.07;;;7.80;;
31224;SDS011;17847;31.524;74.366;2023-07-16T03:36:18;9.88;;;8.20;;
31224;SDS011;17847;31.524;74.366;2023-07-16T03:38:49;11.40;;;7.45;;
31224;SDS011;17847;31.524;74.366;2023-07-16T03:41:18;10.48;;;8.60;;
31224;SDS011;17847;31.524;74.366;2023-07-16T03:43:48;10.57;;;8.18;;
31224;SDS011;17847;31.524;74.366;2023-07-16T03:46:20;13.77;;;9.85;;
31224;SDS011;17847;31.524;74.366;2023-07-16T03:48:51;11.05;;;9.25;;
31224;SDS011;17847;31.524;74.366;2023-07-16T03:51:21;12.60;;;9.25;;
31224;SDS011;17847;31.524;74.366;2023-07-16T03:53:53;12.45;;;7.97;;
31224;SDS011;17847;31.524;74.366;2023-07-16T03:56:22;13.50;;;9.55;;
31224;SDS011;17847;31.524;74.366;2023-07-16T03:58:52;14.32;;;9.43;;
31224;SDS011;17847;31.524;74.366;2023-07-16T04:01:21;12.70;;;9.65;;
31224;SDS011;17847;31.524;74.366;2023-07-16T04:03:50;16.92;;;9.60;;
31224;SDS011;17847;31.524;74.366;2023-07-16T04:06:20;14.25;;;10.13;;
31224;SDS011;17847;31.524;74.366;2023-07-16T04:08:51;13.55;;;9.10;;
31224;SDS011;17847;31.524;74.366;2023-07-16T04:11:21;17.15;;;10.70;;
31224;SDS011;17847;31.524;74.366;2023-07-16T04:13:50;15.32;;;10.32;;
31224;SDS011;17847;31.524;74.366;2023-07-16T04:16:19;14.93;;;10.38;;
31224;SDS011;17847;31.524;74.366;2023-07-16T04:18:49;14.70;;;10.35;;
31224;SDS011;17847;31.524;74.366;2023-07-16T04:21:18;12.38;;;9.90;;
31224;SDS011;17847;31.524;74.366;2023-07-16T04:23:49;16.20;;;11.07;;
31224;SDS011;17847;31.524;74.366;2023-07-16T04:26:18;15.23;;;11.27;;
31224;SDS011;17847;31.524;74.366;2023-07-16T04:28:48;14.80;;;10.93;;
31224;SDS011;17847;31.524;74.366;2023-07-16T04:31:17;16.15;;;12.18;;
31224;SDS011;17847;31.524;74.366;2023-07-16T04:33:47;16.73;;;11.57;;
31224;SDS011;17847;31.524;74.366;2023-07-16T04:36:16;19.40;;;12.43;;
31224;SDS011;17847;31.524;74.366;2023-07-16T04:38:45;17.90;;;12.43;;
31224;SDS011;17847;31.524;74.366;2023-07-16T04:41:16;18.02;;;12.00;;
31224;SDS011;17847;31.524;74.366;2023-07-16T04:43:46;21.63;;;14.70;;
31224;SDS011;17847;31.524;74.366;2023-07-16T04:46:16;23.02;;;19.48;;
31224;SDS011;17847;31.524;74.366;2023-07-16T04:48:45;22.88;;;18.70;;
31224;SDS011;17847;31.524;74.366;2023-07-16T04:51:15;25.75;;;19.50;;
31224;SDS011;17847;31.524;74.366;2023-07-16T04:53:45;25.98;;;19.85;;
31224;SDS011;17847;31.524;74.366;2023-07-16T04:56:15;28.92;;;18.27;;
31224;SDS011;17847;31.524;74.366;2023-07-16T04:58:45;23.48;;;17.95;;
31224;SDS011;17847;31.524;74.366;2023-07-16T05:01:14;24.00;;;18.10;;
31224;SDS011;17847;31.524;74.366;2023-07-16T05:03:50;23.05;;;18.17;;
31224;SDS011;17847;31.524;74.366;2023-07-16T05:06:20;24.08;;;18.65;;
31224;SDS011;17847;31.524;74.366;2023-07-16T05:08:50;24.27;;;18.23;;
31224;SDS011;17847;31.524;74.366;2023-07-16T05:11:20;31.45;;;20.27;;
31224;SDS011;17847;31.524;74.366;2023-07-16T05:13:49;25.08;;;19.67;;
31224;SDS011;17847;31.524;74.366;2023-07-16T05:16:19;26.38;;;20.73;;
31224;SDS011;17847;31.524;74.366;2023-07-16T05:18:49;27.42;;;20.63;;
31224;SDS011;17847;31.524;74.366;2023-07-16T05:21:18;33.85;;;23.90;;
31224;SDS011;17847;31.524;74.366;2023-07-16T05:23:48;27.30;;;22.95;;
31224;SDS011;17847;31.524;74.366;2023-07-16T05:26:17;37.33;;;23.92;;
31224;SDS011;17847;31.524;74.366;2023-07-16T05:28:46;30.23;;;22.23;;
31224;SDS011;17847;31.524;74.366;2023-07-16T05:31:15;32.97;;;23.25;;
31224;SDS011;17847;31.524;74.366;2023-07-16T05:33:45;33.85;;;24.15;;
31224;SDS011;17847;31.524;74.366;2023-07-16T05:36:14;31.92;;;23.58;;
31224;SDS011;17847;31.524;74.366;2023-07-16T05:38:44;32.15;;;24.20;;
31224;SDS011;17847;31.524;74.366;2023-07-16T05:41:13;38.58;;;24.60;;
31224;SDS011;17847;31.524;74.366;2023-07-16T05:43:43;34.17;;;25.02;;
31224;SDS011;17847;31.524;74.366;2023-07-16T05:46:12;39.13;;;28.65;;
31224;SDS011;17847;31.524;74.366;2023-07-16T05:48:42;41.03;;;26.90;;
31224;SDS011;17847;31.524;74.366;2023-07-16T05:51:12;35.10;;;26.25;;
31224;SDS011;17847;31.524;74.366;2023-07-16T05:53:41;35.95;;;26.58;;
31224;SDS011;17847;31.524;74.366;2023-07-16T05:56:11;35.17;;;25.95;;
31224;SDS011;17847;31.524;74.366;2023-07-16T05:58:41;36.05;;;26.55;;
31224;SDS011;17847;31.524;74.366;2023-07-16T06:01:10;41.08;;;27.88;;
31224;SDS011;17847;31.524;74.366;2023-07-16T06:03:40;35.25;;;26.05;;
31224;SDS011;17847;31.524;74.366;2023-07-16T06:06:09;34.92;;;24.98;;
31224;SDS011;17847;31.524;74.366;2023-07-16T06:08:39;31.65;;;23.90;;
31224;SDS011;17847;31.524;74.366;2023-07-16T06:11:08;35.08;;;24.80;;
31224;SDS011;17847;31.524;74.366;2023-07-16T06:13:56;34.88;;;24.20;;
31224;SDS011;17847;31.524;74.366;2023-07-16T06:16:25;36.88;;;24.88;;
31224;SDS011;17847;31.524;74.366;2023-07-16T06:18:56;33.60;;;23.80;;
31224;SDS011;17847;31.524;74.366;2023-07-16T06:21:25;34.10;;;23.52;;
31224;SDS011;17847;31.524;74.366;2023-07-16T06:23:55;33.80;;;23.73;;
31224;SDS011;17847;31.524;74.366;2023-07-16T06:26:25;32.30;;;23.98;;
31224;SDS011;17847;31.524;74.366;2023-07-16T06:28:55;36.30;;;25.15;;
31224;SDS011;17847;31.524;74.366;2023-07-16T06:31:27;34.43;;;24.20;;
31224;SDS011;17847;31.524;74.366;2023-07-16T06:33:57;35.30;;;24.45;;
31224;SDS011;17847;31.524;74.366;2023-07-16T06:36:27;37.05;;;25.92;;
31224;SDS011;17847;31.524;74.366;2023-07-16T06:38:56;36.28;;;25.92;;
31224;SDS011;17847;31.524;74.366;2023-07-16T06:41:26;40.08;;;27.35;;
31224;SDS011;17847;31.524;74.366;2023-07-16T06:43:56;38.92;;;26.15;;
31224;SDS011;17847;31.524;74.366;2023-07-16T06:46:25;40.97;;;25.42;;
31224;SDS011;17847;31.524;74.366;2023-07-16T06:48:55;40.33;;;26.52;;
31224;SDS011;17847;31.524;74.366;2023-07-16T06:51:24;36.25;;;24.60;;
31224;SDS011;17847;31.524;74.366;2023-07-16T06:53:54;36.47;;;24.80;;
31224;SDS011;17847;31.524;74.366;2023-07-16T06:56:23;35.30;;;23.73;;
31224;SDS011;17847;31.524;74.366;2023-07-16T06:58:55;35.47;;;24.02;;
31224;SDS011;17847;31.524;74.366;2023-07-16T07:01:24;34.75;;;22.90;;
31224;SDS011;17847;31.524;74.366;2023-07-16T07:03:56;31.23;;;22.15;;
31224;SDS011;17847;31.524;74.366;2023-07-16T07:06:26;30.45;;;21.90;;
31224;SDS011;17847;31.524;74.366;2023-07-16T07:08:55;33.53;;;21.75;;
31224;SDS011;17847;31.524;74.366;2023-07-16T07:11:24;32.13;;;22.52;;
31224;SDS011;17847;31.524;74.366;2023-07-16T07:13:54;31.80;;;21.88;;
31224;SDS011;17847;31.524;74.366;2023-07-16T07:16:26;31.90;;;21.02;;
31224;SDS011;17847;31.524;74.366;2023-07-16T07:18:56;29.10;;;21.70;;
31224;SDS011;17847;31.524;74.366;2023-07-16T07:21:26;30.95;;;21.70;;
31224;SDS011;17847;31.524;74.366;2023-07-16T07:23:55;28.88;;;21.45;;
31224;SDS011;17847;31.524;74.366;2023-07-16T07:26:25;29.27;;;21.25;;
31224;SDS011;17847;31.524;74.366;2023-07-16T07:28:55;26.65;;;19.77;;
31224;SDS011;17847;31.524;74.366;2023-07-16T07:31:25;27.23;;;19.77;;
31224;SDS011;17847;31.524;74.366;2023-07-16T07:33:54;24.95;;;18.30;;
31224;SDS011;17847;31.524;74.366;2023-07-16T07:36:26;26.98;;;19.30;;
31224;SDS011;17847;31.524;74.366;2023-07-16T07:38:56;24.63;;;18.27;;
31224;SDS011;17847;31.524;74.366;2023-07-16T07:41:26;27.00;;;17.92;;
31224;SDS011;17847;31.524;74.366;2023-07-16T07:43:55;22.65;;;18.02;;
31224;SDS011;17847;31.524;74.366;2023-07-16T07:46:24;23.17;;;18.65;;
31224;SDS011;17847;31.524;74.366;2023-07-16T07:48:54;22.20;;;17.48;;
31224;SDS011;17847;31.524;74.366;2023-07-16T07:51:25;27.08;;;18.55;;
31224;SDS011;17847;31.524;74.366;2023-07-16T07:53:55;24.65;;;18.85;;
31224;SDS011;17847;31.524;74.366;2023-07-16T07:56:25;29.13;;;19.42;;
31224;SDS011;17847;31.524;74.366;2023-07-16T07:58:54;28.23;;;19.92;;
31224;SDS011;17847;31.524;74.366;2023-07-16T08:01:25;29.05;;;19.60;;
31224;SDS011;17847;31.524;74.366;2023-07-16T08:03:55;29.23;;;20.10;;
31224;SDS011;17847;31.524;74.366;2023-07-16T08:06:25;28.95;;;20.75;;
31224;SDS011;17847;31.524;74.366;2023-07-16T08:08:55;27.65;;;19.67;;
31224;SDS011;17847;31.524;74.366;2023-07-16T08:11:27;24.40;;;17.77;;
31224;SDS011;17847;31.524;74.366;2023-07-16T08:13:57;28.93;;;18.53;;
31224;SDS011;17847;31.524;74.366;2023-07-16T08:16:26;25.92;;;18.83;;
31224;SDS011;17847;31.524;74.366;2023-07-16T08:18:59;24.60;;;17.83;;
31224;SDS011;17847;31.524;74.366;2023-07-16T08:21:30;23.70;;;18.27;;
31224;SDS011;17847;31.524;74.366;2023-07-16T08:24:02;28.23;;;18.90;;
31224;SDS011;17847;31.524;74.366;2023-07-16T08:26:32;22.88;;;18.17;;
31224;SDS011;17847;31.524;74.366;2023-07-16T08:29:03;25.20;;;19.27;;
31224;SDS011;17847;31.524;74.366;2023-07-16T08:31:36;24.58;;;18.48;;
31224;SDS011;17847;31.524;74.366;2023-07-16T08:34:05;27.75;;;19.38;;
31224;SDS011;17847;31.524;74.366;2023-07-16T08:36:36;26.73;;;18.63;;
31224;SDS011;17847;31.524;74.366;2023-07-16T08:39:10;29.00;;;19.80;;
31224;SDS011;17847;31.524;74.366;2023-07-16T08:41:40;33.38;;;21.77;;
31224;SDS011;17847;31.524;74.366;2023-07-16T08:44:10;32.80;;;21.52;;
31224;SDS011;17847;31.524;74.366;2023-07-16T08:46:41;30.25;;;21.65;;
31224;SDS011;17847;31.524;74.366;2023-07-16T08:49:11;27.27;;;19.83;;
31224;SDS011;17847;31.524;74.366;2023-07-16T08:51:42;25.67;;;20.20;;
31224;SDS011;17847;31.524;74.366;2023-07-16T08:54:13;28.75;;;20.30;;
31224;SDS011;17847;31.524;74.366;2023-07-16T08:56:47;23.88;;;19.15;;
31224;SDS011;17847;31.524;74.366;2023-07-16T08:59:17;30.38;;;19.38;;
31224;SDS011;17847;31.524;74.366;2023-07-16T09:01:47;28.58;;;19.92;;
31224;SDS011;17847;31.524;74.366;2023-07-16T09:04:21;25.73;;;19.17;;
31224;SDS011;17847;31.524;74.366;2023-07-16T09:06:50;28.70;;;19.55;;
31224;SDS011;17847;31.524;74.366;2023-07-16T09:09:23;28.08;;;17.88;;
31224;SDS011;17847;31.524;74.366;2023-07-16T09:11:56;25.08;;;19.10;;
31224;SDS011;17847;31.524;74.366;2023-07-16T09:14:28;30.98;;;21.20;;
31224;SDS011;17847;31.524;74.366;2023-07-16T09:16:58;31.92;;;21.30;;
31224;SDS011;17847;31.524;74.366;2023-07-16T09:19:27;32.47;;;20.73;;
31224;SDS011;17847;31.524;74.366;2023-07-16T09:22:01;28.10;;;19.33;;
31224;SDS011;17847;31.524;74.366;2023-07-16T09:24:30;35.45;;;23.23;;
31224;SDS011;17847;31.524;74.366;2023-07-16T09:27:00;32.90;;;22.75;;
31224;SDS011;17847;31.524;74.366;2023-07-16T09:29:30;35.28;;;22.00;;
31224;SDS011;17847;31.524;74.366;2023-07-16T09:32:00;29.42;;;21.30;;
31224;SDS011;17847;31.524;74.366;2023-07-16T09:34:36;33.42;;;21.88;;
31224;SDS011;17847;31.524;74.366;2023-07-16T09:37:06;36.13;;;22.10;;
31224;SDS011;17847;31.524;74.366;2023-07-16T09:39:37;30.80;;;20.40;;
31224;SDS011;17847;31.524;74.366;2023-07-16T09:42:07;30.85;;;21.88;;
31224;SDS011;17847;31.524;74.366;2023-07-16T09:44:36;28.05;;;20.45;;
31224;SDS011;17847;31.524;74.366;2023-07-16T09:47:06;27.10;;;20.35;;
31224;SDS011;17847;31.524;74.366;2023-07-16T09:49:39;27.27;;;20.95;;
31224;SDS011;17847;31.524;74.366;2023-07-16T09:52:09;27.88;;;20.63;;
31224;SDS011;17847;31.524;74.366;2023-07-16T09:54:38;27.85;;;20.10;;
31224;SDS011;17847;31.524;74.366;2023-07-16T09:57:13;25.85;;;18.95;;
31224;SDS011;17847;31.524;74.366;2023-07-16T09:59:44;25.05;;;18.70;;
31224;SDS011;17847;31.524;74.366;2023-07-16T10:02:15;28.20;;;18.92;;
31224;SDS011;17847;31.524;74.366;2023-07-16T10:04:45;26.35;;;18.58;;
31224;SDS011;17847;31.524;74.366;2023-07-16T10:07:21;25.30;;;18.02;;
31224;SDS011;17847;31.524;74.366;2023-07-16T10:09:56;28.58;;;20.48;;
31224;SDS011;17847;31.524;74.366;2023-07-16T10:12:26;26.27;;;20.45;;
31224;SDS011;17847;31.524;74.366;2023-07-16T10:14:57;24.63;;;18.38;;
31224;SDS011;17847;31.524;74.366;2023-07-16T10:17:27;31.67;;;20.45;;
31224;SDS011;17847;31.524;74.366;2023-07-16T10:22:42;26.88;;;20.35;;
31224;SDS011;17847;31.524;74.366;2023-07-16T10:27:51;29.08;;;20.50;;
31224;SDS011;17847;31.524;74.366;2023-07-16T10:30:21;27.77;;;20.52;;
31224;SDS011;17847;31.524;74.366;2023-07-16T10:32:53;29.58;;;20.02;;
31224;SDS011;17847;31.524;74.366;2023-07-16T10:35:22;26.95;;;20.33;;
31224;SDS011;17847;31.524;74.366;2023-07-16T10:37:54;25.17;;;19.42;;
31224;SDS011;17847;31.524;74.366;2023-07-16T10:40:23;24.33;;;19.75;;
31224;SDS011;17847;31.524;74.366;2023-07-16T10:42:53;23.83;;;19.98;;
31224;SDS011;17847;31.524;74.366;2023-07-16T10:45:22;26.67;;;20.33;;
31224;SDS011;17847;31.524;74.366;2023-07-16T10:47:52;30.13;;;20.67;;
31224;SDS011;17847;31.524;74.366;2023-07-16T10:50:26;26.83;;;17.88;;
31224;SDS011;17847;31.524;74.366;2023-07-16T10:52:56;30.13;;;20.00;;
31224;SDS011;17847;31.524;74.366;2023-07-16T10:55:27;26.33;;;18.98;;
31224;SDS011;17847;31.524;74.366;2023-07-16T10:58:03;25.58;;;21.20;;
31224;SDS011;17847;31.524;74.366;2023-07-16T11:00:39;29.10;;;20.35;;
31224;SDS011;17847;31.524;74.366;2023-07-16T11:03:09;27.67;;;20.40;;
31224;SDS011;17847;31.524;74.366;2023-07-16T11:05:38;27.30;;;21.42;;
31224;SDS011;17847;31.524;74.366;2023-07-16T11:08:11;28.75;;;21.65;;
31224;SDS011;17847;31.524;74.366;2023-07-16T11:10:56;28.20;;;21.95;;
31224;SDS011;17847;31.524;74.366;2023-07-16T11:13:27;32.47;;;21.83;;
31224;SDS011;17847;31.524;74.366;2023-07-16T11:16:07;29.92;;;23.52;;
31224;SDS011;17847;31.524;74.366;2023-07-16T11:18:38;31.05;;;22.13;;
31224;SDS011;17847;31.524;74.366;2023-07-16T11:23:40;33.25;;;23.98;;
31224;SDS011;17847;31.524;74.366;2023-07-16T11:26:10;29.52;;;22.40;;
31224;SDS011;17847;31.524;74.366;2023-07-16T11:28:40;32.17;;;24.85;;
31224;SDS011;17847;31.524;74.366;2023-07-16T11:31:13;31.75;;;25.50;;
31224;SDS011;17847;31.524;74.366;2023-07-16T11:33:45;32.67;;;23.90;;
31224;SDS011;17847;31.524;74.366;2023-07-16T11:36:16;30.65;;;23.58;;
31224;SDS011;17847;31.524;74.366;2023-07-16T11:38:47;33.30;;;26.23;;
31224;SDS011;17847;31.524;74.366;2023-07-16T11:41:19;35.00;;;27.08;;
31224;SDS011;17847;31.524;74.366;2023-07-16T11:43:50;29.63;;;24.63;;
31224;SDS011;17847;31.524;74.366;2023-07-16T11:46:22;33.30;;;25.23;;
31224;SDS011;17847;31.524;74.366;2023-07-16T11:48:51;30.50;;;24.45;;
31224;SDS011;17847;31.524;74.366;2023-07-16T11:51:21;35.70;;;23.73;;
31224;SDS011;17847;31.524;74.366;2023-07-16T11:53:50;28.00;;;22.33;;
31224;SDS011;17847;31.524;74.366;2023-07-16T11:56:24;34.13;;;24.10;;
31224;SDS011;17847;31.524;74.366;2023-07-16T11:58:53;36.50;;;27.40;;
31224;SDS011;17847;31.524;74.366;2023-07-16T12:01:22;35.33;;;26.33;;
31224;SDS011;17847;31.524;74.366;2023-07-16T12:03:52;30.50;;;24.95;;
31224;SDS011;17847;31.524;74.366;2023-07-16T12:06:22;29.83;;;25.88;;
31224;SDS011;17847;31.524;74.366;2023-07-16T12:08:57;34.83;;;26.02;;
31224;SDS011;17847;31.524;74.366;2023-07-16T12:11:28;31.58;;;24.23;;
31224;SDS011;17847;31.524;74.366;2023-07-16T12:13:59;34.35;;;25.80;;
31224;SDS011;17847;31.524;74.366;2023-07-16T12:16:29;31.15;;;24.08;;
31224;SDS011;17847;31.524;74.366;2023-07-16T12:19:02;30.25;;;23.35;;
31224;SDS011;17847;31.524;74.366;2023-07-16T12:21:31;39.45;;;27.55;;
31224;SDS011;17847;31.524;74.366;2023-07-16T12:24:01;39.15;;;28.40;;
31224;SDS011;17847;31.524;74.366;2023-07-16T12:26:31;34.60;;;25.95;;
31224;SDS011;17847;31.524;74.366;2023-07-16T12:29:01;36.35;;;25.35;;
31224;SDS011;17847;31.524;74.366;2023-07-16T12:31:32;33.88;;;27.08;;
31224;SDS011;17847;31.524;74.366;2023-07-16T12:34:02;31.95;;;25.80;;
31224;SDS011;17847;31.524;74.366;2023-07-16T12:36:33;32.47;;;27.33;;
31224;SDS011;17847;31.524;74.366;2023-07-16T12:39:03;35.08;;;27.75;;
31224;SDS011;17847;31.524;74.366;2023-07-16T12:41:33;33.10;;;26.88;;
31224;SDS011;17847;31.524;74.366;2023-07-16T12:44:02;37.33;;;28.27;;
31224;SDS011;17847;31.524;74.366;2023-07-16T12:46:32;36.47;;;28.33;;
31224;SDS011;17847;31.524;74.366;2023-07-16T12:49:02;35.83;;;28.20;;
31224;SDS011;17847;31.524;74.366;2023-07-16T12:51:32;40.05;;;27.48;;
31224;SDS011;17847;31.524;74.366;2023-07-16T12:54:01;32.33;;;26.00;;
31224;SDS011;17847;31.524;74.366;2023-07-16T12:56:31;33.00;;;24.45;;
31224;SDS011;17847;31.524;74.366;2023-07-16T12:59:02;31.48;;;26.10;;
31224;SDS011;17847;31.524;74.366;2023-07-16T13:01:32;33.30;;;25.85;;
31224;SDS011;17847;31.524;74.366;2023-07-16T13:04:01;32.55;;;25.10;;
31224;SDS011;17847;31.524;74.366;2023-07-16T13:06:31;30.15;;;23.95;;
31224;SDS011;17847;31.524;74.366;2023-07-16T13:09:01;31.88;;;24.40;;
31224;SDS011;17847;31.524;74.366;2023-07-16T13:11:30;39.53;;;25.02;;
31224;SDS011;17847;31.524;74.366;2023-07-16T13:14:00;32.80;;;23.55;;
31224;SDS011;17847;31.524;74.366;2023-07-16T13:16:29;29.13;;;21.23;;
31224;SDS011;17847;31.524;74.366;2023-07-16T13:19:01;35.87;;;24.90;;
31224;SDS011;17847;31.524;74.366;2023-07-16T13:21:31;30.95;;;23.02;;
31224;SDS011;17847;31.524;74.366;2023-07-16T13:24:00;32.97;;;24.75;;
31224;SDS011;17847;31.524;74.366;2023-07-16T13:26:31;33.08;;;23.58;;
31224;SDS011;17847;31.524;74.366;2023-07-16T13:29:01;32.15;;;24.88;;
31224;SDS011;17847;31.524;74.366;2023-07-16T13:31:30;33.17;;;24.98;;
31224;SDS011;17847;31.524;74.366;2023-07-16T13:34:00;32.72;;;23.63;;
31224;SDS011;17847;31.524;74.366;2023-07-16T13:36:29;29.50;;;22.92;;
31224;SDS011;17847;31.524;74.366;2023-07-16T13:38:58;32.72;;;22.92;;
31224;SDS011;17847;31.524;74.366;2023-07-16T13:41:31;36.97;;;22.85;;
31224;SDS011;17847;31.524;74.366;2023-07-16T13:44:01;31.17;;;22.10;;
31224;SDS011;17847;31.524;74.366;2023-07-16T13:46:32;32.28;;;23.80;;
31224;SDS011;17847;31.524;74.366;2023-07-16T13:51:34;32.78;;;21.75;;
31224;SDS011;17847;31.524;74.366;2023-07-16T13:54:04;29.08;;;22.02;;
31224;SDS011;17847;31.524;74.366;2023-07-16T13:56:33;29.92;;;23.05;;
31224;SDS011;17847;31.524;74.366;2023-07-16T13:59:03;28.15;;;21.77;;
31224;SDS011;17847;31.524;74.366;2023-07-16T14:01:37;28.23;;;21.17;;
31224;SDS011;17847;31.524;74.366;2023-07-16T14:04:11;30.92;;;21.45;;
31224;SDS011;17847;31.524;74.366;2023-07-16T14:06:41;34.67;;;21.65;;
31224;SDS011;17847;31.524;74.366;2023-07-16T14:09:10;29.98;;;21.52;;
31224;SDS011;17847;31.524;74.366;2023-07-16T14:11:48;31.00;;;21.98;;
31224;SDS011;17847;31.524;74.366;2023-07-16T14:14:18;25.83;;;20.08;;
31224;SDS011;17847;31.524;74.366;2023-07-16T14:16:48;31.63;;;22.67;;
31224;SDS011;17847;31.524;74.366;2023-07-16T14:19:18;27.95;;;20.60;;
31224;SDS011;17847;31.524;74.366;2023-07-16T14:21:49;28.20;;;22.00;;
31224;SDS011;17847;31.524;74.366;2023-07-16T14:24:18;28.08;;;20.63;;
31224;SDS011;17847;31.524;74.366;2023-07-16T14:26:48;27.52;;;21.30;;
31224;SDS011;17847;31.524;74.366;2023-07-16T14:29:17;25.67;;;20.95;;
31224;SDS011;17847;31.524;74.366;2023-07-16T14:31:47;27.15;;;21.67;;
31224;SDS011;17847;31.524;74.366;2023-07-16T14:34:18;29.23;;;20.23;;
31224;SDS011;17847;31.524;74.366;2023-07-16T14:36:47;31.52;;;21.17;;
31224;SDS011;17847;31.524;74.366;2023-07-16T14:39:17;29.13;;;21.17;;
31224;SDS011;17847;31.524;74.366;2023-07-16T14:41:49;26.77;;;21.60;;
31224;SDS011;17847;31.524;74.366;2023-07-16T14:44:19;28.52;;;21.75;;
31224;SDS011;17847;31.524;74.366;2023-07-16T14:46:49;28.38;;;20.13;;
31224;SDS011;17847;31.524;74.366;2023-07-16T14:49:18;28.13;;;19.83;;
31224;SDS011;17847;31.524;74.366;2023-07-16T14:51:48;28.83;;;21.38;;
31224;SDS011;17847;31.524;74.366;2023-07-16T14:54:17;29.00;;;20.30;;